sensor_id;sensor_type;location;lat;lon;timestamp;temperature;humidity
4090;DHT22;2059;48.538;12.146;2024-02-23T00:01:31;10.40;99.90
4090;DHT22;2059;48.538;12.146;2024-02-23T00:06:33;10.30;99.90
4090;DHT22;2059;48.538;12.146;2024-02-23T00:11:39;10.20;99.90
4090;DHT22;2059;48.538;12.146;2024-02-23T00:16:44;10.30;99.90
4090;DHT22;2059;48.538;12.146;2024-02-23T00:21:46;10.30;99.90
4090;DHT22;2059;48.538;12.146;2024-02-23T00:26:51;10.10;99.90
4090;DHT22;2059;48.538;12.146;2024-02-23T00:31:53;10.10;99.90
4090;DHT22;2059;48.538;12.146;2024-02-23T00:36:55;10.20;99.90
4090;DHT22;2059;48.538;12.146;2024-02-23T00:41:59;10.00;99.90
4090;DHT22;2059;48.538;12.146;2024-02-23T00:47:01;9.90;99.90
4090;DHT22;2059;48.538;12.146;2024-02-23T00:52:05;10.00;99.90
4090;DHT22;2059;48.538;12.146;2024-02-23T00:57:08;9.90;99.90
4090;DHT22;2059;48.538;12.146;2024-02-23T01:02:10;9.80;99.90
4090;DHT22;2059;48.538;12.146;2024-02-23T01:07:12;9.70;99.90
4090;DHT22;2059;48.538;12.146;2024-02-23T01:12:18;9.50;99.90
4090;DHT22;2059;48.538;12.146;2024-02-23T01:17:20;9.50;99.90
4090;DHT22;2059;48.538;12.146;2024-02-23T01:22:22;9.40;99.90
4090;DHT22;2059;48.538;12.146;2024-02-23T01:27:25;9.30;99.90
4090;DHT22;2059;48.538;12.146;2024-02-23T01:32:27;9.30;99.90
4090;DHT22;2059;48.538;12.146;2024-02-23T01:37:29;9.40;99.90
4090;DHT22;2059;48.538;12.146;2024-02-23T01:42:33;9.30;99.90
4090;DHT22;2059;48.538;12.146;2024-02-23T01:47:35;9.10;99.90
4090;DHT22;2059;48.538;12.146;2024-02-23T01:52:37;9.00;99.90
4090;DHT22;2059;48.538;12.146;2024-02-23T01:57:40;9.00;99.90
4090;DHT22;2059;48.538;12.146;2024-02-23T02:02:43;9.00;99.90
4090;DHT22;2059;48.538;12.146;2024-02-23T02:07:46;9.00;99.90
4090;DHT22;2059;48.538;12.146;2024-02-23T02:12:50;8.90;99.90
4090;DHT22;2059;48.538;12.146;2024-02-23T02:17:52;8.90;99.90
4090;DHT22;2059;48.538;12.146;2024-02-23T02:22:55;8.80;99.90
4090;DHT22;2059;48.538;12.146;2024-02-23T02:27:58;8.90;99.90
4090;DHT22;2059;48.538;12.146;2024-02-23T02:33:00;9.00;99.90
4090;DHT22;2059;48.538;12.146;2024-02-23T02:38:02;9.00;99.90
4090;DHT22;2059;48.538;12.146;2024-02-23T02:43:06;9.00;99.90
4090;DHT22;2059;48.538;12.146;2024-02-23T02:48:08;9.10;99.90
4090;DHT22;2059;48.538;12.146;2024-02-23T02:53:10;9.00;99.90
4090;DHT22;2059;48.538;12.146;2024-02-23T02:58:14;8.40;99.90
4090;DHT22;2059;48.538;12.146;2024-02-23T03:03:16;8.20;99.90
4090;DHT22;2059;48.538;12.146;2024-02-23T03:08:18;8.10;99.90
4090;DHT22;2059;48.538;12.146;2024-02-23T03:13:22;7.70;99.90
4090;DHT22;2059;48.538;12.146;2024-02-23T03:18:24;7.30;99.90
4090;DHT22;2059;48.538;12.146;2024-02-23T03:23:28;7.20;99.90
4090;DHT22;2059;48.538;12.146;2024-02-23T03:28:31;7.10;99.90
4090;DHT22;2059;48.538;12.146;2024-02-23T03:33:33;7.00;99.90
4090;DHT22;2059;48.538;12.146;2024-02-23T03:38:35;6.90;99.90
4090;DHT22;2059;48.538;12.146;2024-02-23T03:43:38;7.10;99.90
4090;DHT22;2059;48.538;12.146;2024-02-23T03:48:40;7.20;99.90
4090;DHT22;2059;48.538;12.146;2024-02-23T03:53:42;7.10;99.90
4090;DHT22;2059;48.538;12.146;2024-02-23T03:58:45;7.10;99.90
4090;DHT22;2059;48.538;12.146;2024-02-23T04:03:46;6.90;99.90
4090;DHT22;2059;48.538;12.146;2024-02-23T04:08:48;7.00;99.90
4090;DHT22;2059;48.538;12.146;2024-02-23T04:13:51;7.00;99.90
4090;DHT22;2059;48.538;12.146;2024-02-23T04:18:53;7.20;99.90
4090;DHT22;2059;48.538;12.146;2024-02-23T04:23:56;7.20;99.90
4090;DHT22;2059;48.538;12.146;2024-02-23T04:28:59;7.30;99.90
4090;DHT22;2059;48.538;12.146;2024-02-23T04:34:01;7.30;99.90
4090;DHT22;2059;48.538;12.146;2024-02-23T04:39:03;7.40;99.90
4090;DHT22;2059;48.538;12.146;2024-02-23T04:44:06;7.60;99.90
4090;DHT22;2059;48.538;12.146;2024-02-23T04:49:07;7.60;99.90
4090;DHT22;2059;48.538;12.146;2024-02-23T04:54:12;7.70;99.90
4090;DHT22;2059;48.538;12.146;2024-02-23T04:59:15;7.70;99.90
4090;DHT22;2059;48.538;12.146;2024-02-23T05:04:17;7.70;99.90
4090;DHT22;2059;48.538;12.146;2024-02-23T05:09:19;7.70;99.90
4090;DHT22;2059;48.538;12.146;2024-02-23T05:14:23;7.30;99.90
4090;DHT22;2059;48.538;12.146;2024-02-23T05:19:25;7.40;99.90
4090;DHT22;2059;48.538;12.146;2024-02-23T05:24:27;7.50;99.90
4090;DHT22;2059;48.538;12.146;2024-02-23T05:29:30;7.60;99.90
4090;DHT22;2059;48.538;12.146;2024-02-23T05:34:32;7.70;99.90
4090;DHT22;2059;48.538;12.146;2024-02-23T05:39:36;7.60;99.90
4090;DHT22;2059;48.538;12.146;2024-02-23T05:44:39;7.80;99.90
4090;DHT22;2059;48.538;12.146;2024-02-23T05:49:41;7.70;99.90
4090;DHT22;2059;48.538;12.146;2024-02-23T05:54:43;7.70;99.90
4090;DHT22;2059;48.538;12.146;2024-02-23T05:59:46;7.70;99.90
4090;DHT22;2059;48.538;12.146;2024-02-23T06:04:48;7.70;99.90
4090;DHT22;2059;48.538;12.146;2024-02-23T06:09:50;7.50;99.90
4090;DHT22;2059;48.538;12.146;2024-02-23T06:14:53;7.70;99.90
4090;DHT22;2059;48.538;12.146;2024-02-23T06:19:55;7.80;99.90
4090;DHT22;2059;48.538;12.146;2024-02-23T06:24:59;7.70;99.90
4090;DHT22;2059;48.538;12.146;2024-02-23T06:30:02;7.50;99.90
4090;DHT22;2059;48.538;12.146;2024-02-23T06:35:05;7.60;99.90
4090;DHT22;2059;48.538;12.146;2024-02-23T06:40:08;7.50;99.90
4090;DHT22;2059;48.538;12.146;2024-02-23T06:45:11;7.70;99.90
4090;DHT22;2059;48.538;12.146;2024-02-23T06:50:13;8.00;99.90
4090;DHT22;2059;48.538;12.146;2024-02-23T06:55:15;7.80;99.90
4090;DHT22;2059;48.538;12.146;2024-02-23T07:00:20;8.00;99.90
4090;DHT22;2059;48.538;12.146;2024-02-23T07:05:22;7.70;99.90
4090;DHT22;2059;48.538;12.146;2024-02-23T07:10:24;8.00;99.90
4090;DHT22;2059;48.538;12.146;2024-02-23T07:15:27;8.00;99.90
4090;DHT22;2059;48.538;12.146;2024-02-23T07:20:30;7.90;99.90
4090;DHT22;2059;48.538;12.146;2024-02-23T07:25:32;8.00;99.90
4090;DHT22;2059;48.538;12.146;2024-02-23T07:30:35;8.10;99.90
4090;DHT22;2059;48.538;12.146;2024-02-23T07:35:36;7.90;99.90
4090;DHT22;2059;48.538;12.146;2024-02-23T07:40:38;8.10;99.90
4090;DHT22;2059;48.538;12.146;2024-02-23T07:45:42;8.20;99.90
4090;DHT22;2059;48.538;12.146;2024-02-23T07:50:44;8.40;99.90
4090;DHT22;2059;48.538;12.146;2024-02-23T07:55:45;8.30;99.90
4090;DHT22;2059;48.538;12.146;2024-02-23T08:00:49;8.50;99.90
4090;DHT22;2059;48.538;12.146;2024-02-23T08:05:50;8.70;99.90
4090;DHT22;2059;48.538;12.146;2024-02-23T08:10:52;8.60;99.90
4090;DHT22;2059;48.538;12.146;2024-02-23T08:15:55;8.50;99.90
4090;DHT22;2059;48.538;12.146;2024-02-23T08:20:57;8.70;99.90
4090;DHT22;2059;48.538;12.146;2024-02-23T08:25:59;8.70;99.90
4090;DHT22;2059;48.538;12.146;2024-02-23T08:31:02;8.80;99.90
4090;DHT22;2059;48.538;12.146;2024-02-23T08:36:05;8.80;99.90
4090;DHT22;2059;48.538;12.146;2024-02-23T08:41:08;9.00;99.90
4090;DHT22;2059;48.538;12.146;2024-02-23T08:46:11;9.30;99.90
4090;DHT22;2059;48.538;12.146;2024-02-23T08:51:13;9.10;99.90
4090;DHT22;2059;48.538;12.146;2024-02-23T08:56:15;9.30;99.90
4090;DHT22;2059;48.538;12.146;2024-02-23T09:01:18;9.70;99.90
4090;DHT22;2059;48.538;12.146;2024-02-23T09:06:20;10.00;99.30
4090;DHT22;2059;48.538;12.146;2024-02-23T09:11:22;9.90;99.90
4090;DHT22;2059;48.538;12.146;2024-02-23T09:16:25;9.70;99.40
4090;DHT22;2059;48.538;12.146;2024-02-23T09:21:27;9.50;99.70
4090;DHT22;2059;48.538;12.146;2024-02-23T09:26:28;9.50;99.90
4090;DHT22;2059;48.538;12.146;2024-02-23T09:31:32;9.30;99.90
4090;DHT22;2059;48.538;12.146;2024-02-23T09:36:34;9.30;99.90
4090;DHT22;2059;48.538;12.146;2024-02-23T09:41:37;9.40;99.90
4090;DHT22;2059;48.538;12.146;2024-02-23T09:46:43;9.00;99.90
4090;DHT22;2059;48.538;12.146;2024-02-23T09:51:45;8.90;99.90
4090;DHT22;2059;48.538;12.146;2024-02-23T09:56:47;8.90;99.90
4090;DHT22;2059;48.538;12.146;2024-02-23T10:01:50;8.80;99.90
4090;DHT22;2059;48.538;12.146;2024-02-23T10:06:53;9.00;99.90
4090;DHT22;2059;48.538;12.146;2024-02-23T10:11:54;8.90;99.90
4090;DHT22;2059;48.538;12.146;2024-02-23T10:16:57;9.00;99.90
4090;DHT22;2059;48.538;12.146;2024-02-23T10:21:59;8.80;99.90
4090;DHT22;2059;48.538;12.146;2024-02-23T10:27:01;8.90;99.90
4090;DHT22;2059;48.538;12.146;2024-02-23T10:32:06;8.90;99.90
4090;DHT22;2059;48.538;12.146;2024-02-23T10:37:08;9.00;99.90
4090;DHT22;2059;48.538;12.146;2024-02-23T10:42:10;9.00;99.90
4090;DHT22;2059;48.538;12.146;2024-02-23T10:47:15;8.70;98.30
4090;DHT22;2059;48.538;12.146;2024-02-23T10:52:17;8.80;97.60
4090;DHT22;2059;48.538;12.146;2024-02-23T10:57:19;8.90;97.30
4090;DHT22;2059;48.538;12.146;2024-02-23T11:02:24;8.90;96.70
4090;DHT22;2059;48.538;12.146;2024-02-23T11:07:29;8.90;98.00
4090;DHT22;2059;48.538;12.146;2024-02-23T11:12:31;9.10;97.80
4090;DHT22;2059;48.538;12.146;2024-02-23T11:17:36;9.20;97.80
4090;DHT22;2059;48.538;12.146;2024-02-23T11:22:38;8.60;99.40
4090;DHT22;2059;48.538;12.146;2024-02-23T11:27:42;8.70;99.00
4090;DHT22;2059;48.538;12.146;2024-02-23T11:32:47;8.40;99.30
4090;DHT22;2059;48.538;12.146;2024-02-23T11:37:51;8.10;99.90
4090;DHT22;2059;48.538;12.146;2024-02-23T11:42:58;8.40;99.70
4090;DHT22;2059;48.538;12.146;2024-02-23T11:48:02;8.30;99.80
4090;DHT22;2059;48.538;12.146;2024-02-23T11:53:04;8.30;99.90
4090;DHT22;2059;48.538;12.146;2024-02-23T11:58:06;8.20;99.90
4090;DHT22;2059;48.538;12.146;2024-02-23T12:03:10;8.40;99.70
4090;DHT22;2059;48.538;12.146;2024-02-23T12:08:12;8.50;99.90
4090;DHT22;2059;48.538;12.146;2024-02-23T12:13:14;8.50;99.50
4090;DHT22;2059;48.538;12.146;2024-02-23T12:18:17;8.20;99.70
4090;DHT22;2059;48.538;12.146;2024-02-23T12:23:20;7.90;99.80
4090;DHT22;2059;48.538;12.146;2024-02-23T12:28:22;8.00;99.90
4090;DHT22;2059;48.538;12.146;2024-02-23T12:33:27;8.10;99.90
4090;DHT22;2059;48.538;12.146;2024-02-23T12:38:29;7.70;99.90
4090;DHT22;2059;48.538;12.146;2024-02-23T12:43:31;7.80;99.90
4090;DHT22;2059;48.538;12.146;2024-02-23T12:48:34;7.80;99.90
4090;DHT22;2059;48.538;12.146;2024-02-23T12:53:38;7.80;99.90
4090;DHT22;2059;48.538;12.146;2024-02-23T12:58:41;8.10;99.90
4090;DHT22;2059;48.538;12.146;2024-02-23T13:03:44;8.00;99.90
4090;DHT22;2059;48.538;12.146;2024-02-23T13:08:46;8.30;99.90
4090;DHT22;2059;48.538;12.146;2024-02-23T13:13:48;8.10;99.90
4090;DHT22;2059;48.538;12.146;2024-02-23T13:18:51;8.00;99.90
4090;DHT22;2059;48.538;12.146;2024-02-23T13:23:52;8.10;99.90
4090;DHT22;2059;48.538;12.146;2024-02-23T13:28:54;8.40;99.90
4090;DHT22;2059;48.538;12.146;2024-02-23T13:33:57;8.80;99.60
4090;DHT22;2059;48.538;12.146;2024-02-23T13:38:59;8.70;99.40
4090;DHT22;2059;48.538;12.146;2024-02-23T13:44:01;8.30;99.60
4090;DHT22;2059;48.538;12.146;2024-02-23T13:49:05;8.40;99.70
4090;DHT22;2059;48.538;12.146;2024-02-23T13:54:07;8.30;99.90
4090;DHT22;2059;48.538;12.146;2024-02-23T13:59:09;8.10;99.90
4090;DHT22;2059;48.538;12.146;2024-02-23T14:04:12;8.30;99.60
4090;DHT22;2059;48.538;12.146;2024-02-23T14:09:14;8.20;99.60
4090;DHT22;2059;48.538;12.146;2024-02-23T14:14:15;8.20;99.30
4090;DHT22;2059;48.538;12.146;2024-02-23T14:19:19;8.10;99.40
4090;DHT22;2059;48.538;12.146;2024-02-23T14:24:21;8.10;99.10
4090;DHT22;2059;48.538;12.146;2024-02-23T14:29:23;8.10;99.20
4090;DHT22;2059;48.538;12.146;2024-02-23T14:34:26;8.00;99.40
4090;DHT22;2059;48.538;12.146;2024-02-23T14:39:28;8.10;99.40
4090;DHT22;2059;48.538;12.146;2024-02-23T14:44:29;8.20;97.70
4090;DHT22;2059;48.538;12.146;2024-02-23T14:49:33;7.80;97.30
4090;DHT22;2059;48.538;12.146;2024-02-23T14:54:34;7.70;93.30
4090;DHT22;2059;48.538;12.146;2024-02-23T14:59:37;7.80;93.90
4090;DHT22;2059;48.538;12.146;2024-02-23T15:04:48;7.70;96.00
4090;DHT22;2059;48.538;12.146;2024-02-23T15:09:50;7.90;97.60
4090;DHT22;2059;48.538;12.146;2024-02-23T15:14:51;7.70;97.90
4090;DHT22;2059;48.538;12.146;2024-02-23T15:19:54;7.60;98.10
4090;DHT22;2059;48.538;12.146;2024-02-23T15:24:56;7.70;97.30
4090;DHT22;2059;48.538;12.146;2024-02-23T15:30:00;7.40;97.50
4090;DHT22;2059;48.538;12.146;2024-02-23T15:35:03;7.60;97.50
4090;DHT22;2059;48.538;12.146;2024-02-23T15:40:06;7.80;96.10
4090;DHT22;2059;48.538;12.146;2024-02-23T15:45:08;7.60;96.50
4090;DHT22;2059;48.538;12.146;2024-02-23T15:50:11;7.50;96.00
4090;DHT22;2059;48.538;12.146;2024-02-23T15:55:13;7.50;96.20
4090;DHT22;2059;48.538;12.146;2024-02-23T16:00:16;7.30;96.40
4090;DHT22;2059;48.538;12.146;2024-02-23T16:05:19;7.30;96.30
4090;DHT22;2059;48.538;12.146;2024-02-23T16:10:21;7.10;96.70
4090;DHT22;2059;48.538;12.146;2024-02-23T16:15:22;7.30;96.50
4090;DHT22;2059;48.538;12.146;2024-02-23T16:20:25;7.20;97.10
4090;DHT22;2059;48.538;12.146;2024-02-23T16:25:27;7.30;96.50
4090;DHT22;2059;48.538;12.146;2024-02-23T16:41:49;6.90;97.30
4090;DHT22;2059;48.538;12.146;2024-02-23T16:46:51;6.70;97.50
4090;DHT22;2059;48.538;12.146;2024-02-23T16:51:52;6.30;98.50
4090;DHT22;2059;48.538;12.146;2024-02-23T16:56:55;6.30;98.50
4090;DHT22;2059;48.538;12.146;2024-02-23T17:01:58;6.10;98.90
4090;DHT22;2059;48.538;12.146;2024-02-23T17:07:00;6.40;98.70
4090;DHT22;2059;48.538;12.146;2024-02-23T17:12:03;6.00;99.30
4090;DHT22;2059;48.538;12.146;2024-02-23T17:17:05;5.80;99.30
4090;DHT22;2059;48.538;12.146;2024-02-23T17:22:07;6.00;99.50
4090;DHT22;2059;48.538;12.146;2024-02-23T17:27:10;5.90;99.80
4090;DHT22;2059;48.538;12.146;2024-02-23T17:32:12;5.80;99.90
4090;DHT22;2059;48.538;12.146;2024-02-23T17:37:14;5.70;99.90
4090;DHT22;2059;48.538;12.146;2024-02-23T17:42:17;5.70;99.90
4090;DHT22;2059;48.538;12.146;2024-02-23T17:47:19;5.60;99.90
4090;DHT22;2059;48.538;12.146;2024-02-23T17:52:20;5.40;99.90
4090;DHT22;2059;48.538;12.146;2024-02-23T17:57:23;5.80;99.90
4090;DHT22;2059;48.538;12.146;2024-02-23T18:02:25;5.60;99.90
4090;DHT22;2059;48.538;12.146;2024-02-23T18:07:27;5.90;99.90
4090;DHT22;2059;48.538;12.146;2024-02-23T18:12:31;6.00;99.90
4090;DHT22;2059;48.538;12.146;2024-02-23T18:17:33;6.30;99.90
4090;DHT22;2059;48.538;12.146;2024-02-23T18:22:35;5.90;99.90
4090;DHT22;2059;48.538;12.146;2024-02-23T18:27:38;5.40;99.90
4090;DHT22;2059;48.538;12.146;2024-02-23T18:32:40;5.80;99.90
4090;DHT22;2059;48.538;12.146;2024-02-23T18:37:41;5.50;99.90
4090;DHT22;2059;48.538;12.146;2024-02-23T18:42:45;5.70;99.90
4090;DHT22;2059;48.538;12.146;2024-02-23T18:47:46;5.80;99.90
4090;DHT22;2059;48.538;12.146;2024-02-23T18:52:48;5.30;99.90
4090;DHT22;2059;48.538;12.146;2024-02-23T18:57:51;5.50;99.90
4090;DHT22;2059;48.538;12.146;2024-02-23T19:02:54;5.70;99.90
4090;DHT22;2059;48.538;12.146;2024-02-23T19:07:55;5.80;99.90
4090;DHT22;2059;48.538;12.146;2024-02-23T19:12:58;5.70;99.90
4090;DHT22;2059;48.538;12.146;2024-02-23T19:18:00;5.50;99.90
4090;DHT22;2059;48.538;12.146;2024-02-23T19:23:03;5.70;99.90
4090;DHT22;2059;48.538;12.146;2024-02-23T19:28:06;5.70;99.90
4090;DHT22;2059;48.538;12.146;2024-02-23T19:33:09;5.90;99.90
4090;DHT22;2059;48.538;12.146;2024-02-23T19:38:11;5.80;99.90
4090;DHT22;2059;48.538;12.146;2024-02-23T19:43:14;5.50;99.90
4090;DHT22;2059;48.538;12.146;2024-02-23T19:48:16;5.70;99.90
4090;DHT22;2059;48.538;12.146;2024-02-23T19:53:18;5.40;99.90
4090;DHT22;2059;48.538;12.146;2024-02-23T19:58:21;5.90;99.90
4090;DHT22;2059;48.538;12.146;2024-02-23T20:03:23;5.70;99.90
4090;DHT22;2059;48.538;12.146;2024-02-23T20:08:24;5.50;99.90
4090;DHT22;2059;48.538;12.146;2024-02-23T20:13:27;5.20;99.90
4090;DHT22;2059;48.538;12.146;2024-02-23T20:18:29;5.30;99.90
4090;DHT22;2059;48.538;12.146;2024-02-23T20:23:31;5.30;99.90
4090;DHT22;2059;48.538;12.146;2024-02-23T20:28:34;5.60;99.90
4090;DHT22;2059;48.538;12.146;2024-02-23T20:33:36;5.80;99.90
4090;DHT22;2059;48.538;12.146;2024-02-23T20:38:40;5.90;99.90
4090;DHT22;2059;48.538;12.146;2024-02-23T20:43:43;5.70;99.90
4090;DHT22;2059;48.538;12.146;2024-02-23T20:48:45;5.40;99.90
4090;DHT22;2059;48.538;12.146;2024-02-23T20:53:47;5.30;99.90
4090;DHT22;2059;48.538;12.146;2024-02-23T20:58:50;5.00;99.90
4090;DHT22;2059;48.538;12.146;2024-02-23T21:03:51;5.20;99.90
4090;DHT22;2059;48.538;12.146;2024-02-23T21:08:53;5.30;99.90
4090;DHT22;2059;48.538;12.146;2024-02-23T21:13:56;5.70;99.90
4090;DHT22;2059;48.538;12.146;2024-02-23T21:18:58;5.60;99.90
4090;DHT22;2059;48.538;12.146;2024-02-23T21:24:00;5.30;99.90
4090;DHT22;2059;48.538;12.146;2024-02-23T21:29:05;5.30;99.90
4090;DHT22;2059;48.538;12.146;2024-02-23T21:34:07;5.30;99.90
4090;DHT22;2059;48.538;12.146;2024-02-23T21:39:10;5.40;99.90
4090;DHT22;2059;48.538;12.146;2024-02-23T21:44:13;5.40;99.90
4090;DHT22;2059;48.538;12.146;2024-02-23T21:49:17;5.40;99.90
4090;DHT22;2059;48.538;12.146;2024-02-23T21:54:18;5.30;99.90
4090;DHT22;2059;48.538;12.146;2024-02-23T21:59:24;5.60;99.90
4090;DHT22;2059;48.538;12.146;2024-02-23T22:04:26;5.10;99.90
4090;DHT22;2059;48.538;12.146;2024-02-23T22:09:28;5.10;99.90
4090;DHT22;2059;48.538;12.146;2024-02-23T22:14:31;5.10;99.90
4090;DHT22;2059;48.538;12.146;2024-02-23T22:19:32;5.30;99.90
4090;DHT22;2059;48.538;12.146;2024-02-23T22:24:34;5.60;99.90
4090;DHT22;2059;48.538;12.146;2024-02-23T22:29:39;5.40;99.90
4090;DHT22;2059;48.538;12.146;2024-02-23T22:34:41;5.10;99.90
4090;DHT22;2059;48.538;12.146;2024-02-23T22:39:43;5.10;99.90
4090;DHT22;2059;48.538;12.146;2024-02-23T22:44:46;4.90;99.90
4090;DHT22;2059;48.538;12.146;2024-02-23T22:49:48;5.30;99.90
4090;DHT22;2059;48.538;12.146;2024-02-23T22:54:49;4.80;99.90
4090;DHT22;2059;48.538;12.146;2024-02-23T22:59:52;5.10;99.90
4090;DHT22;2059;48.538;12.146;2024-02-23T23:04:54;5.50;99.90
4090;DHT22;2059;48.538;12.146;2024-02-23T23:09:56;5.30;99.90
4090;DHT22;2059;48.538;12.146;2024-02-23T23:14:59;5.40;99.90
4090;DHT22;2059;48.538;12.146;2024-02-23T23:20:01;5.30;99.90
4090;DHT22;2059;48.538;12.146;2024-02-23T23:25:06;5.40;99.90
4090;DHT22;2059;48.538;12.146;2024-02-23T23:30:11;5.20;99.90
4090;DHT22;2059;48.538;12.146;2024-02-23T23:35:13;5.50;99.90
4090;DHT22;2059;48.538;12.146;2024-02-23T23:40:14;5.60;99.90
4090;DHT22;2059;48.538;12.146;2024-02-23T23:45:17;5.50;99.90
4090;DHT22;2059;48.538;12.146;2024-02-23T23:50:19;5.40;99.90
4090;DHT22;2059;48.538;12.146;2024-02-23T23:55:21;5.30;99.90
